Terminal Aerodrome Forecast
Issued by NWS

Home | Current Version | Previous Version | Graphics & Text | Print | Product List | Glossary On
Versions: 1 2 3 4 5 6 7 8 9 10 11 12 13 14 15 16 17
158
FTUS43 KMPX 190800 AAA
TAFRNH
TAF AMD
KRNH 190800Z 1908/2006 36007KT P6SM SCT020 OVC100
     FM190900 01010KT P6SM OVC020
     FM191200 02011KT P6SM VCSH OVC025
     FM191500 03015G23KT 2SM -SN BR OVC015
     FM200200 04011KT P6SM OVC015=

USA.gov is the U.S. government's official web portal to all federal, state and local government web resources and services.